createdAt,value
2023-05-05T00:01:49.971Z,59.39
2023-05-05T00:04:18.224Z,58.76
2023-05-05T00:06:46.004Z,59.27
2023-05-05T00:09:13.900Z,59.08
2023-05-05T00:11:42.059Z,58.94
2023-05-05T00:14:09.758Z,58.64
2023-05-05T00:16:37.478Z,59.71
2023-05-05T00:19:06.052Z,59.67
2023-05-05T00:21:34.102Z,59.80
2023-05-05T00:24:01.728Z,59.25
2023-05-05T00:26:29.594Z,60.53
2023-05-05T00:28:57.573Z,60.52
2023-05-05T00:31:25.370Z,60.19
2023-05-05T00:33:54.718Z,59.37
2023-05-05T00:36:22.288Z,60.18
2023-05-05T00:38:50.152Z,59.96
2023-05-05T00:41:18.590Z,60.42
2023-05-05T00:43:46.304Z,59.43
2023-05-05T00:46:25.010Z,59.39
2023-05-05T00:48:53.567Z,59.44
2023-05-05T00:51:21.907Z,59.23
2023-05-05T00:53:49.781Z,59.99
2023-05-05T00:56:18.981Z,60.73
2023-05-05T00:58:47.540Z,61.13
2023-05-05T01:01:15.662Z,60.79
2023-05-05T01:03:43.887Z,60.02
2023-05-05T01:06:26.724Z,62.97
2023-05-05T01:09:13.151Z,64.77
2023-05-05T01:12:07.025Z,65.46
2023-05-05T01:14:41.569Z,65.56
2023-05-05T01:17:17.244Z,66.03
2023-05-05T01:19:52.204Z,66.45
2023-05-05T01:22:24.272Z,66.23
2023-05-05T01:25:11.467Z,66.55
2023-05-05T01:27:45.256Z,66.21
2023-05-05T01:30:44.332Z,67.16
2023-05-05T01:33:20.455Z,66.64
2023-05-05T01:35:53.350Z,67.09
2023-05-05T01:38:42.525Z,67.28
2023-05-05T01:41:17.601Z,67.22
2023-05-05T01:43:47.374Z,67.98
2023-05-05T01:46:16.573Z,68.06
2023-05-05T01:48:44.754Z,68.26
2023-05-05T01:51:12.888Z,68.30
2023-05-05T01:53:41.706Z,68.57
2023-05-05T01:56:09.928Z,68.76
2023-05-05T01:58:37.933Z,69.40
2023-05-05T02:01:06.613Z,69.17
2023-05-05T02:03:35.802Z,69.10
2023-05-05T02:06:04.586Z,69.86
2023-05-05T02:08:34.845Z,69.38
2023-05-05T02:11:03.354Z,69.51
2023-05-05T02:13:31.824Z,68.77
2023-05-05T02:15:59.890Z,68.41
2023-05-05T02:18:28.099Z,69.20
2023-05-05T02:20:55.715Z,69.69
2023-05-05T02:23:23.538Z,69.55
2023-05-05T02:25:54.971Z,67.41
2023-05-05T02:28:24.847Z,64.59
2023-05-05T02:30:57.661Z,67.91
2023-05-05T02:33:26.541Z,69.50
2023-05-05T02:35:55.298Z,70.83
2023-05-05T02:38:26.577Z,70.41
2023-05-05T02:40:58.050Z,69.82
2023-05-05T02:43:25.854Z,69.82
2023-05-05T02:45:53.485Z,69.47
2023-05-05T02:48:21.802Z,70.48
2023-05-05T02:50:50.475Z,71.16
2023-05-05T02:53:24.364Z,71.63
2023-05-05T02:55:54.284Z,72.43
2023-05-05T02:58:48.746Z,72.84
2023-05-05T03:01:40.372Z,72.45
2023-05-05T03:04:12.422Z,73.27
2023-05-05T03:06:42.837Z,73.82
2023-05-05T03:09:33.275Z,73.76
2023-05-05T03:12:03.374Z,75.06
2023-05-05T03:14:37.165Z,75.07
2023-05-05T03:17:06.244Z,75.33
2023-05-05T03:19:35.650Z,75.30
2023-05-05T03:22:03.958Z,74.99
2023-05-05T03:24:32.561Z,75.37
2023-05-05T03:27:00.601Z,75.68
2023-05-05T03:29:29.990Z,75.72
2023-05-05T03:31:58.881Z,75.68
2023-05-05T03:34:26.705Z,75.52
2023-05-05T03:36:54.357Z,76.10
2023-05-05T03:39:22.414Z,77.02
2023-05-05T03:41:50.867Z,76.21
2023-05-05T03:44:19.547Z,75.79
2023-05-05T03:46:47.412Z,76.61
2023-05-05T03:49:15.492Z,76.58
2023-05-05T03:51:43.434Z,76.20
2023-05-05T03:54:11.998Z,76.52
2023-05-05T03:56:40.237Z,76.95
2023-05-05T03:59:07.783Z,77.15
2023-05-05T04:01:36.006Z,77.58
2023-05-05T04:04:04.233Z,78.40
2023-05-05T04:06:31.824Z,77.49
2023-05-05T04:08:59.751Z,77.75
2023-05-05T04:11:28.009Z,78.03
2023-05-05T04:13:56.311Z,77.92
2023-05-05T04:16:24.328Z,78.33
2023-05-05T04:18:52.952Z,78.66
2023-05-05T04:21:20.816Z,78.54
2023-05-05T04:23:48.969Z,78.01
2023-05-05T04:26:17.021Z,76.39
2023-05-05T04:28:45.684Z,75.98
2023-05-05T04:31:13.504Z,75.50
2023-05-05T04:33:42.299Z,74.14
2023-05-05T04:36:10.414Z,75.11
2023-05-05T04:38:38.064Z,73.73
2023-05-05T04:41:06.260Z,72.14
2023-05-05T04:43:34.424Z,72.04
2023-05-05T04:46:02.061Z,71.76
2023-05-05T04:48:30.770Z,70.77
2023-05-05T04:50:58.670Z,70.54
2023-05-05T04:53:26.346Z,69.56
2023-05-05T04:55:54.925Z,69.62
2023-05-05T04:58:22.526Z,68.29
2023-05-05T05:00:50.432Z,69.19
2023-05-05T05:03:19.896Z,68.28
2023-05-05T05:05:47.878Z,67.59
2023-05-05T05:08:16.747Z,68.19
2023-05-05T05:10:44.932Z,69.04
2023-05-05T05:13:13.166Z,68.44
2023-05-05T05:15:41.677Z,67.36
2023-05-05T05:18:09.966Z,67.03
2023-05-05T05:20:37.775Z,66.61
2023-05-05T05:23:05.745Z,66.20
2023-05-05T05:25:34.010Z,65.50
2023-05-05T05:28:09.995Z,65.44
2023-05-05T05:30:39.700Z,65.72
2023-05-05T05:33:08.668Z,65.02
2023-05-05T05:35:36.869Z,64.79
2023-05-05T05:38:04.940Z,64.72
2023-05-05T05:40:32.739Z,64.75
2023-05-05T05:43:00.620Z,63.32
2023-05-05T05:45:29.019Z,63.62
2023-05-05T05:47:56.643Z,62.23
2023-05-05T05:50:24.349Z,62.31
2023-05-05T05:52:52.444Z,62.02
2023-05-05T05:55:20.185Z,61.79
2023-05-05T05:57:48.120Z,61.79
2023-05-05T06:00:16.226Z,61.72
2023-05-05T06:02:45.453Z,61.65
2023-05-05T06:05:13.854Z,61.38
2023-05-05T06:07:42.557Z,60.41
2023-05-05T06:10:19.016Z,59.78
2023-05-05T06:12:54.409Z,59.76
2023-05-05T06:15:22.478Z,61.07
2023-05-05T06:17:51.049Z,56.48
2023-05-05T06:20:18.750Z,55.70
2023-05-05T06:22:46.780Z,59.72
2023-05-05T06:25:14.749Z,59.98
2023-05-05T06:27:42.557Z,60.21
2023-05-05T06:30:11.021Z,59.89
2023-05-05T06:32:38.712Z,58.73
2023-05-05T06:35:07.293Z,59.30
2023-05-05T06:37:35.364Z,57.79
2023-05-05T06:40:03.396Z,58.29
2023-05-05T06:42:31.146Z,57.19
2023-05-05T06:44:59.498Z,57.51
2023-05-05T06:47:27.154Z,57.17
2023-05-05T06:49:54.775Z,57.85
2023-05-05T06:52:23.179Z,57.85
2023-05-05T06:54:50.872Z,57.87
2023-05-05T06:57:18.438Z,58.24
2023-05-05T06:59:46.411Z,57.15
2023-05-05T07:02:14.280Z,55.99
2023-05-05T07:04:44.317Z,53.83
2023-05-05T07:07:12.411Z,52.43
2023-05-05T07:09:41.048Z,52.61
2023-05-05T07:12:08.919Z,50.90
2023-05-05T07:14:36.890Z,52.99
2023-05-05T07:17:05.684Z,55.88
2023-05-05T07:19:33.620Z,55.94
2023-05-05T07:22:01.791Z,54.64
2023-05-05T07:24:29.514Z,55.67
2023-05-05T07:26:57.101Z,55.79
2023-05-05T07:29:25.025Z,55.26
2023-05-05T07:31:52.753Z,54.27
2023-05-05T07:34:20.699Z,52.46
2023-05-05T07:36:48.724Z,51.33
2023-05-05T07:39:16.290Z,51.38
2023-05-05T07:41:43.878Z,53.56
2023-05-05T07:44:12.528Z,54.97
2023-05-05T07:46:40.558Z,54.44
2023-05-05T07:49:08.240Z,52.61
2023-05-05T07:51:36.164Z,50.63
2023-05-05T07:54:03.887Z,51.28
2023-05-05T07:56:31.757Z,52.19
2023-05-05T07:58:59.781Z,51.56
2023-05-05T08:01:27.413Z,49.66
2023-05-05T08:03:55.550Z,48.31
2023-05-05T08:06:23.203Z,48.96
2023-05-05T08:08:54.148Z,50.58
2023-05-05T08:11:22.178Z,49.70
2023-05-05T08:13:49.846Z,48.80
2023-05-05T08:16:17.591Z,48.18
2023-05-05T08:18:46.079Z,48.31
2023-05-05T08:21:13.860Z,46.73
2023-05-05T08:23:41.601Z,48.09
2023-05-05T08:26:09.586Z,48.51
2023-05-05T08:28:37.551Z,47.04
2023-05-05T08:31:05.915Z,47.77
2023-05-05T08:33:33.867Z,47.82
2023-05-05T08:36:01.539Z,48.59
2023-05-05T08:38:29.263Z,49.88
2023-05-05T08:40:57.242Z,48.54
2023-05-05T08:43:25.498Z,49.34
2023-05-05T08:45:53.374Z,49.00
2023-05-05T08:48:22.560Z,47.84
2023-05-05T08:50:56.720Z,48.37
2023-05-05T08:53:40.825Z,47.67
2023-05-05T08:56:08.465Z,47.50
2023-05-05T08:58:37.052Z,47.47
2023-05-05T09:01:06.331Z,47.75
2023-05-05T09:03:35.728Z,45.44
2023-05-05T09:06:04.439Z,45.27
2023-05-05T09:08:33.566Z,47.24
2023-05-05T09:11:01.409Z,47.91
2023-05-05T09:13:30.543Z,46.26
2023-05-05T09:15:59.309Z,47.06
2023-05-05T09:18:27.406Z,49.05
2023-05-05T09:20:57.488Z,48.43
2023-05-05T09:23:27.080Z,47.38
2023-05-05T09:26:05.405Z,47.96
2023-05-05T09:28:33.062Z,48.64
2023-05-05T09:31:14.605Z,51.18
2023-05-05T09:33:44.135Z,50.65
2023-05-05T09:36:12.107Z,48.11
2023-05-05T09:38:40.943Z,48.62
2023-05-05T09:41:08.603Z,48.83
2023-05-05T09:43:52.244Z,48.36
2023-05-05T09:46:20.085Z,46.27
2023-05-05T09:48:48.152Z,45.77
2023-05-05T09:51:15.808Z,45.28
2023-05-05T09:53:43.372Z,44.61
2023-05-05T09:56:11.458Z,42.93
2023-05-05T09:58:39.381Z,43.23
2023-05-05T10:01:21.769Z,41.71
2023-05-05T10:03:50.653Z,43.69
2023-05-05T10:06:18.273Z,42.18
2023-05-05T10:09:01.001Z,40.70
2023-05-05T10:11:29.757Z,41.46
2023-05-05T10:13:57.928Z,40.40
2023-05-05T10:16:28.649Z,40.64
2023-05-05T10:19:02.166Z,40.76
2023-05-05T10:21:36.724Z,41.61
2023-05-05T10:24:13.700Z,41.16
2023-05-05T10:26:42.073Z,38.93
2023-05-05T10:30:02.467Z,39.97
2023-05-05T10:35:11.022Z,37.32
2023-05-05T10:37:38.752Z,38.89
2023-05-05T10:40:08.402Z,37.65
2023-05-05T10:42:39.781Z,39.01
2023-05-05T10:45:08.020Z,39.46
2023-05-05T10:47:37.004Z,40.24
2023-05-05T10:50:09.812Z,39.56
2023-05-05T10:53:00.705Z,37.93
2023-05-05T10:55:37.811Z,38.68
2023-05-05T10:58:06.047Z,34.78
2023-05-05T11:00:39.551Z,34.41
2023-05-05T11:03:16.213Z,34.93
2023-05-05T11:06:07.238Z,36.06
2023-05-05T11:08:44.898Z,34.26
2023-05-05T11:11:13.264Z,33.35
2023-05-05T11:13:43.521Z,31.14
2023-05-05T11:16:48.343Z,32.22
2023-05-05T11:19:45.367Z,32.74
2023-05-05T11:22:13.040Z,34.11
2023-05-05T11:24:41.269Z,33.97
2023-05-05T11:27:13.563Z,35.07
2023-05-05T11:30:08.020Z,34.65
2023-05-05T11:32:35.932Z,35.52
2023-05-05T11:35:04.091Z,34.16
2023-05-05T11:37:31.872Z,32.96
2023-05-05T11:39:59.425Z,32.89
2023-05-05T11:42:27.714Z,35.27
2023-05-05T11:44:55.411Z,31.20
2023-05-05T11:47:22.969Z,32.25
2023-05-05T11:49:56.685Z,35.00
2023-05-05T11:52:26.246Z,33.52
2023-05-05T11:55:00.062Z,31.67
2023-05-05T11:57:29.051Z,30.71
2023-05-05T12:00:01.685Z,31.62
2023-05-05T12:02:32.374Z,30.93
2023-05-05T12:05:01.028Z,31.54
2023-05-05T12:07:31.057Z,31.77
2023-05-05T12:09:58.780Z,33.04
2023-05-05T12:12:37.562Z,31.50
2023-05-05T12:15:05.900Z,32.06
2023-05-05T12:17:40.616Z,31.85
2023-05-05T12:20:10.145Z,33.37
2023-05-05T12:22:38.996Z,32.89
2023-05-05T12:25:07.934Z,32.87
2023-05-05T12:27:35.772Z,32.86
2023-05-05T12:30:15.159Z,30.15
2023-05-05T12:32:44.388Z,31.15
2023-05-05T12:35:14.831Z,30.24
2023-05-05T12:37:43.126Z,30.69
2023-05-05T12:40:45.704Z,30.59
2023-05-05T12:43:34.106Z,30.02
2023-05-05T12:46:12.332Z,29.85
2023-05-05T12:48:41.391Z,30.48
2023-05-05T12:51:22.220Z,29.25
2023-05-05T12:54:05.390Z,28.38
2023-05-05T12:56:41.129Z,29.16
2023-05-05T12:59:28.012Z,28.56
2023-05-05T13:01:57.419Z,30.47
2023-05-05T13:04:26.394Z,29.64
2023-05-05T13:07:09.654Z,31.36
2023-05-05T13:09:37.819Z,31.57
2023-05-05T13:12:05.819Z,31.42
2023-05-05T13:14:37.676Z,31.29
2023-05-05T13:17:05.625Z,30.44
2023-05-05T13:19:33.593Z,32.16
2023-05-05T13:22:01.624Z,31.82
2023-05-05T13:24:46.685Z,30.43
2023-05-05T13:27:17.860Z,30.45
2023-05-05T13:29:45.933Z,28.82
2023-05-05T13:32:13.878Z,31.12
2023-05-05T13:34:42.238Z,30.27
2023-05-05T13:37:10.378Z,29.95
2023-05-05T13:39:38.170Z,31.47
2023-05-05T13:42:05.864Z,31.65
2023-05-05T13:44:34.279Z,30.78
2023-05-05T13:47:01.978Z,31.78
2023-05-05T13:49:29.647Z,31.41
2023-05-05T13:51:58.197Z,32.32
2023-05-05T13:54:25.800Z,30.58
2023-05-05T13:56:53.507Z,30.62
2023-05-05T13:59:21.475Z,31.70
2023-05-05T14:01:49.111Z,32.39
2023-05-05T14:04:17.206Z,32.14
2023-05-05T14:06:44.873Z,28.71
2023-05-05T14:09:12.462Z,29.51
2023-05-05T14:11:40.582Z,29.22
2023-05-05T14:14:08.836Z,28.57
2023-05-05T14:16:36.642Z,29.45
2023-05-05T14:19:04.734Z,29.35
2023-05-05T14:21:32.557Z,29.27
2023-05-05T14:24:00.281Z,28.68
2023-05-05T14:26:28.608Z,28.46
2023-05-05T14:28:56.361Z,28.89
2023-05-05T14:31:24.088Z,27.23
2023-05-05T14:33:52.365Z,29.60
2023-05-05T14:36:22.092Z,27.87
2023-05-05T14:38:49.754Z,26.97
2023-05-05T14:41:17.686Z,30.31
2023-05-05T14:43:45.562Z,28.97
2023-05-05T14:46:15.773Z,28.91
2023-05-05T14:48:43.682Z,30.47
2023-05-05T14:51:11.370Z,30.32
2023-05-05T14:53:39.214Z,29.30
2023-05-05T14:56:07.202Z,27.90
2023-05-05T14:58:34.911Z,27.45
2023-05-05T15:01:02.719Z,28.74
2023-05-05T15:03:31.099Z,27.34
2023-05-05T15:05:58.763Z,28.39
2023-05-05T15:08:26.702Z,28.60
2023-05-05T15:10:54.680Z,28.84
2023-05-05T15:13:22.417Z,28.87
2023-05-05T15:15:50.107Z,29.06
2023-05-05T15:18:18.368Z,28.14
2023-05-05T15:20:46.156Z,28.11
2023-05-05T15:23:13.850Z,28.06
2023-05-05T15:25:42.139Z,28.48
2023-05-05T15:28:09.806Z,29.33
2023-05-05T15:30:37.466Z,26.90
2023-05-05T15:33:05.665Z,27.49
2023-05-05T15:35:33.325Z,29.29
2023-05-05T15:38:00.911Z,28.53
2023-05-05T15:40:28.951Z,29.79
2023-05-05T15:42:57.070Z,29.32
2023-05-05T15:45:24.898Z,30.06
2023-05-05T15:47:52.951Z,31.48
2023-05-05T15:50:20.954Z,30.23
2023-05-05T15:52:50.044Z,30.72
2023-05-05T15:55:18.146Z,30.91
2023-05-05T15:57:45.774Z,31.84
2023-05-05T16:00:14.063Z,31.56
2023-05-05T16:02:42.750Z,31.58
2023-05-05T16:05:11.089Z,32.11
2023-05-05T16:07:38.821Z,32.72
2023-05-05T16:10:07.402Z,31.46
2023-05-05T16:12:35.083Z,31.96
2023-05-05T16:15:02.794Z,32.18
2023-05-05T16:17:30.825Z,30.71
2023-05-05T16:19:58.479Z,30.53
2023-05-05T16:22:31.927Z,31.37
2023-05-05T16:25:00.190Z,31.44
2023-05-05T16:27:27.817Z,30.92
2023-05-05T16:29:56.767Z,30.98
2023-05-05T16:32:25.622Z,31.34
2023-05-05T16:34:53.465Z,31.97
2023-05-05T16:37:21.066Z,32.45
2023-05-05T16:39:49.021Z,31.48
2023-05-05T16:42:16.692Z,33.02
2023-05-05T16:44:44.218Z,31.00
2023-05-05T16:47:12.132Z,31.81
2023-05-05T16:49:39.981Z,32.58
2023-05-05T16:52:07.633Z,32.57
2023-05-05T16:54:35.596Z,32.47
2023-05-05T16:57:03.317Z,32.09
2023-05-05T16:59:31.721Z,32.64
2023-05-05T17:01:59.801Z,32.26
2023-05-05T17:04:27.477Z,31.88
2023-05-05T17:06:55.130Z,31.81
2023-05-05T17:09:23.116Z,33.24
2023-05-05T17:11:51.270Z,33.61
2023-05-05T17:14:18.849Z,34.03
2023-05-05T17:16:46.819Z,34.69
2023-05-05T17:19:14.542Z,35.75
2023-05-05T17:21:42.379Z,35.65
2023-05-05T17:24:10.798Z,36.79
2023-05-05T17:26:38.577Z,35.99
2023-05-05T17:29:06.255Z,36.14
2023-05-05T17:31:34.463Z,36.21
2023-05-05T17:34:02.627Z,36.75
2023-05-05T17:36:30.307Z,36.41
2023-05-05T17:38:58.264Z,36.94
2023-05-05T17:41:26.316Z,38.29
2023-05-05T17:43:53.980Z,39.09
2023-05-05T17:46:21.983Z,40.40
2023-05-05T17:48:49.999Z,40.16
2023-05-05T17:51:17.747Z,39.76
2023-05-05T17:53:45.670Z,40.34
2023-05-05T17:56:13.346Z,40.59
2023-05-05T17:58:41.420Z,42.11
2023-05-05T18:01:09.399Z,42.59
2023-05-05T18:03:40.024Z,44.06
2023-05-05T18:06:08.441Z,45.17
2023-05-05T18:08:36.112Z,44.74
2023-05-05T18:11:04.420Z,45.46
2023-05-05T18:13:32.017Z,45.32
2023-05-05T18:15:59.620Z,45.91
2023-05-05T18:18:27.756Z,46.71
2023-05-05T18:20:55.721Z,47.43
2023-05-05T18:23:24.164Z,47.07
2023-05-05T18:25:52.113Z,48.97
2023-05-05T18:28:19.995Z,50.41
2023-05-05T18:30:47.689Z,51.80
2023-05-05T18:33:15.644Z,51.24
2023-05-05T18:35:43.265Z,51.04
2023-05-05T18:38:10.996Z,49.50
2023-05-05T18:40:39.047Z,50.92
2023-05-05T18:43:06.674Z,50.94
2023-05-05T18:45:34.370Z,50.99
2023-05-05T18:48:03.342Z,50.87
2023-05-05T18:50:31.998Z,53.57
2023-05-05T18:52:59.689Z,55.45
2023-05-05T18:55:28.008Z,54.07
2023-05-05T18:57:55.662Z,53.57
2023-05-05T19:00:23.581Z,53.08
2023-05-05T19:02:51.979Z,55.54
2023-05-05T19:05:19.963Z,53.96
2023-05-05T19:07:50.410Z,53.56
2023-05-05T19:10:18.429Z,54.36
2023-05-05T19:12:46.114Z,54.29
2023-05-05T19:15:13.827Z,55.15
2023-05-05T19:17:42.016Z,54.35
2023-05-05T19:20:10.294Z,57.16
2023-05-05T19:22:38.034Z,56.88
2023-05-05T19:25:06.287Z,56.66
2023-05-05T19:27:36.566Z,55.58
2023-05-05T19:30:05.152Z,55.12
2023-05-05T19:32:33.201Z,56.52
2023-05-05T19:35:00.988Z,56.32
2023-05-05T19:37:28.629Z,56.47
2023-05-05T19:39:56.865Z,55.55
2023-05-05T19:42:24.564Z,57.59
2023-05-05T19:44:52.600Z,56.48
2023-05-05T19:47:20.500Z,56.12
2023-05-05T19:49:48.306Z,55.28
2023-05-05T19:52:15.976Z,56.01
2023-05-05T19:54:44.056Z,57.04
2023-05-05T19:57:14.335Z,56.39
2023-05-05T19:59:42.057Z,55.79
2023-05-05T20:02:10.158Z,55.70
2023-05-05T20:04:38.212Z,56.12
2023-05-05T20:07:05.893Z,56.17
2023-05-05T20:09:33.701Z,56.17
2023-05-05T20:12:01.558Z,55.45
2023-05-05T20:14:29.509Z,55.31
2023-05-05T20:16:57.214Z,56.27
2023-05-05T20:19:25.344Z,56.93
2023-05-05T20:21:53.110Z,56.34
2023-05-05T20:24:20.795Z,56.88
2023-05-05T20:26:48.728Z,57.87
2023-05-05T20:29:16.600Z,57.58
2023-05-05T20:31:50.550Z,58.10
2023-05-05T20:34:18.680Z,58.89
2023-05-05T20:36:46.339Z,58.82
2023-05-05T20:39:14.914Z,58.73
2023-05-05T20:41:43.890Z,59.20
2023-05-05T20:44:11.545Z,59.06
2023-05-05T20:46:39.293Z,59.14
2023-05-05T20:49:07.297Z,59.24
2023-05-05T20:51:35.085Z,60.26
2023-05-05T20:54:03.085Z,60.67
2023-05-05T20:56:30.954Z,60.81
2023-05-05T20:58:58.781Z,60.37
2023-05-05T21:01:26.614Z,60.52
2023-05-05T21:03:54.771Z,60.06
2023-05-05T21:06:22.405Z,60.02
2023-05-05T21:08:50.118Z,60.97
2023-05-05T21:11:18.237Z,61.55
2023-05-05T21:13:46.080Z,61.84
2023-05-05T21:16:13.762Z,61.00
2023-05-05T21:18:42.138Z,61.58
2023-05-05T21:21:10.006Z,61.18
2023-05-05T21:23:37.780Z,60.59
2023-05-05T21:26:05.672Z,60.52
2023-05-05T21:28:33.914Z,60.77
2023-05-05T21:33:32.217Z,60.53
2023-05-05T21:35:59.721Z,60.35
2023-05-05T21:38:27.387Z,61.28
2023-05-05T21:40:56.974Z,61.89
2023-05-05T21:43:28.169Z,61.61
2023-05-05T21:46:03.267Z,61.99
2023-05-05T21:48:31.502Z,61.77
2023-05-05T21:50:59.688Z,62.64
2023-05-05T21:53:27.529Z,62.58
2023-05-05T21:55:55.178Z,61.71
2023-05-05T21:58:24.050Z,61.93
2023-05-05T22:00:51.831Z,63.18
2023-05-05T22:03:20.984Z,63.09
2023-05-05T22:05:48.615Z,64.13
2023-05-05T22:08:16.418Z,64.16
2023-05-05T22:10:44.620Z,63.58
2023-05-05T22:13:12.754Z,64.31
2023-05-05T22:15:46.753Z,64.19
2023-05-05T22:18:15.720Z,64.35
2023-05-05T22:20:43.475Z,64.41
2023-05-05T22:23:11.154Z,64.26
2023-05-05T22:25:39.042Z,64.83
2023-05-05T22:28:06.729Z,65.66
2023-05-05T22:30:34.424Z,65.77
2023-05-05T22:33:02.469Z,65.10
2023-05-05T22:35:30.223Z,65.71
2023-05-05T22:37:57.914Z,66.27
2023-05-05T22:40:25.930Z,66.15
2023-05-05T22:42:53.738Z,65.15
2023-05-05T22:45:22.373Z,64.79
2023-05-05T22:47:50.437Z,66.35
2023-05-05T22:50:18.483Z,65.10
2023-05-05T22:52:46.080Z,65.82
2023-05-05T22:55:14.115Z,65.93
2023-05-05T22:57:42.261Z,65.83
2023-05-05T23:00:10.428Z,66.44
2023-05-05T23:02:39.014Z,66.97
2023-05-05T23:05:06.844Z,66.86
2023-05-05T23:07:34.549Z,66.66
2023-05-05T23:10:03.083Z,67.97
2023-05-05T23:12:31.012Z,68.10
2023-05-05T23:14:58.645Z,68.21
2023-05-05T23:17:26.590Z,68.31
2023-05-05T23:19:54.202Z,68.08
2023-05-05T23:22:21.961Z,68.58
2023-05-05T23:24:49.892Z,68.46
2023-05-05T23:27:17.510Z,68.85
2023-05-05T23:29:45.161Z,69.17
2023-05-05T23:32:13.144Z,70.05
2023-05-05T23:34:40.896Z,70.56
2023-05-05T23:37:08.585Z,70.92
2023-05-05T23:39:36.549Z,70.24
2023-05-05T23:42:04.245Z,70.26
2023-05-05T23:44:31.984Z,70.92
2023-05-05T23:47:00.422Z,71.00
2023-05-05T23:49:28.288Z,71.88
2023-05-05T23:51:55.822Z,71.91
2023-05-05T23:54:23.974Z,71.49
2023-05-05T23:56:51.853Z,71.94
2023-05-05T23:59:19.975Z,72.22
